createdAt,value
2023-01-22T00:00:44.250Z,103690.66
2023-01-22T00:05:52.622Z,103734.81
2023-01-22T00:10:56.418Z,103738.16
2023-01-22T00:16:00.401Z,103724.16
2023-01-22T00:21:03.575Z,103752.00
2023-01-22T00:26:12.697Z,103731.47
2023-01-22T00:31:18.028Z,103741.31
2023-01-22T00:36:22.670Z,103750.72
2023-01-22T00:41:25.743Z,103751.72
2023-01-22T00:46:29.020Z,103742.31
2023-01-22T00:51:33.718Z,103722.03
2023-01-22T00:56:36.825Z,103728.09
2023-01-22T01:01:40.154Z,103736.91
2023-01-22T01:06:43.182Z,103730.94
2023-01-22T01:11:49.223Z,103743.88
2023-01-22T01:16:53.603Z,103723.53
2023-01-22T01:21:56.702Z,103729.38
2023-01-22T01:26:59.790Z,103740.03
2023-01-22T01:32:02.975Z,103741.19
2023-01-22T01:37:06.000Z,103725.53
2023-01-22T01:42:09.556Z,103742.94
2023-01-22T01:47:33.158Z,103734.09
2023-01-22T01:52:36.856Z,103711.25
2023-01-22T01:57:42.057Z,103735.78
2023-01-22T02:02:45.101Z,103741.47
2023-01-22T02:07:48.685Z,103717.59
2023-01-22T02:12:55.808Z,103739.59
2023-01-22T02:18:01.292Z,103746.91
2023-01-22T02:23:05.251Z,103745.41
2023-01-22T02:28:08.690Z,103744.59
2023-01-22T02:33:12.119Z,103722.84
2023-01-22T02:38:18.103Z,103734.75
2023-01-22T02:43:21.252Z,103724.31
2023-01-22T02:48:24.326Z,103723.81
2023-01-22T02:53:27.975Z,103736.88
2023-01-22T02:58:31.236Z,103736.31
2023-01-22T03:03:35.018Z,103719.53
2023-01-22T03:08:38.027Z,103729.78
2023-01-22T03:13:59.545Z,103757.94
2023-01-22T03:19:22.489Z,103750.47
2023-01-22T03:24:25.710Z,103742.44
2023-01-22T03:29:29.110Z,103766.88
2023-01-22T03:34:32.313Z,103765.22
2023-01-22T03:39:35.578Z,103756.59
2023-01-22T03:44:39.776Z,103727.50
2023-01-22T03:49:42.910Z,103755.22
2023-01-22T03:54:47.157Z,103743.19
2023-01-22T03:59:50.244Z,103771.72
2023-01-22T04:04:53.346Z,103780.16
2023-01-22T04:09:56.371Z,103789.34
2023-01-22T04:14:59.512Z,103773.28
2023-01-22T04:20:03.217Z,103765.91
2023-01-22T04:25:35.869Z,103764.63
2023-01-22T04:30:39.510Z,103782.50
2023-01-22T04:36:00.987Z,103811.19
2023-01-22T04:41:04.482Z,103814.72
2023-01-22T04:46:07.652Z,103813.25
2023-01-22T04:51:11.267Z,103806.81
2023-01-22T04:56:14.496Z,103789.56
2023-01-22T05:01:20.142Z,103808.75
2023-01-22T05:06:23.329Z,103835.25
2023-01-22T05:11:26.442Z,103831.34
2023-01-22T05:16:35.416Z,103832.44
2023-01-22T05:21:38.561Z,103838.31
2023-01-22T05:26:42.586Z,103852.44
2023-01-22T05:31:59.396Z,103821.56
2023-01-22T05:37:08.786Z,103848.50
2023-01-22T05:42:16.279Z,103844.47
2023-01-22T05:47:22.722Z,103849.47
2023-01-22T05:52:44.281Z,103861.94
2023-01-22T05:57:48.206Z,103859.28
2023-01-22T06:03:01.252Z,103850.31
2023-01-22T06:08:08.104Z,103838.88
2023-01-22T06:13:23.169Z,103847.06
2023-01-22T06:18:30.892Z,103844.53
2023-01-22T06:23:35.074Z,103857.44
2023-01-22T06:28:38.619Z,103810.63
2023-01-22T06:33:42.560Z,103786.25
2023-01-22T06:38:45.784Z,103852.94
2023-01-22T06:43:54.129Z,103859.75
2023-01-22T06:48:59.220Z,103865.63
2023-01-22T06:54:02.586Z,103843.88
2023-01-22T06:59:06.092Z,103864.13
2023-01-22T07:04:09.138Z,103869.41
2023-01-22T07:09:12.132Z,103858.44
2023-01-22T07:14:15.500Z,103880.06
2023-01-22T07:19:18.655Z,103896.56
2023-01-22T07:24:21.717Z,103869.03
2023-01-22T07:29:24.835Z,103895.50
2023-01-22T07:34:27.926Z,103868.28
2023-01-22T07:39:30.953Z,103876.81
2023-01-22T07:44:34.122Z,103868.00
2023-01-22T07:49:37.113Z,103872.44
2023-01-22T07:54:40.146Z,103871.38
2023-01-22T07:59:43.642Z,103856.41
2023-01-22T08:04:46.646Z,103860.69
2023-01-22T08:09:49.869Z,103846.38
2023-01-22T08:14:52.833Z,103868.47
2023-01-22T08:19:55.814Z,103846.78
2023-01-22T08:24:58.823Z,103858.31
2023-01-22T08:30:05.379Z,103839.16
2023-01-22T08:35:09.511Z,103834.97
2023-01-22T08:45:31.861Z,103836.47
2023-01-22T08:50:34.925Z,103843.03
2023-01-22T08:55:38.032Z,103830.75
2023-01-22T09:00:41.132Z,103827.91
2023-01-22T09:05:44.152Z,103821.13
2023-01-22T09:10:47.298Z,103807.16
2023-01-22T09:15:50.405Z,103810.69
2023-01-22T09:20:53.401Z,103789.66
2023-01-22T09:25:56.472Z,103809.94
2023-01-22T09:30:59.621Z,103781.69
2023-01-22T09:36:10.767Z,103790.81
2023-01-22T09:41:20.355Z,103799.78
2023-01-22T09:46:58.586Z,103791.16
2023-01-22T09:52:05.239Z,103769.47
2023-01-22T09:57:26.480Z,103747.91
2023-01-22T10:02:38.389Z,103755.53
2023-01-22T10:07:45.162Z,103766.41
2023-01-22T10:13:13.349Z,103751.31
2023-01-22T10:18:34.277Z,103764.75
2023-01-22T10:23:37.208Z,103760.84
2023-01-22T10:28:45.812Z,103768.38
2023-01-22T10:33:56.604Z,103757.31
2023-01-22T10:44:31.697Z,103741.25
2023-01-22T10:49:34.802Z,103738.38
2023-01-22T10:54:40.889Z,103740.31
2023-01-22T10:59:58.559Z,103736.75
2023-01-22T11:05:33.063Z,103728.53
2023-01-22T11:10:50.671Z,103709.59
2023-01-22T11:16:01.119Z,103724.38
2023-01-22T11:21:19.082Z,103695.53
2023-01-22T11:26:46.665Z,103718.56
2023-01-22T11:32:03.602Z,103701.00
2023-01-22T11:37:17.616Z,103686.59
2023-01-22T11:42:31.887Z,103711.50
2023-01-22T11:47:53.217Z,103706.59
2023-01-22T11:53:33.440Z,103712.50
2023-01-22T11:58:45.977Z,103712.56
2023-01-22T12:03:49.042Z,103718.28
2023-01-22T12:09:11.520Z,103708.69
2023-01-22T12:14:39.558Z,103709.38
2023-01-22T12:20:15.205Z,103683.78
2023-01-22T12:26:00.227Z,103713.69
2023-01-22T12:31:26.293Z,103703.19
2023-01-22T12:36:31.454Z,103708.69
2023-01-22T12:41:46.843Z,103698.66
2023-01-22T12:47:18.676Z,103684.66
2023-01-22T12:52:30.758Z,103715.13
2023-01-22T12:57:42.109Z,103696.78
2023-01-22T13:02:45.134Z,103704.28
2023-01-22T13:07:49.812Z,103693.28
2023-01-22T13:13:15.507Z,103699.91
2023-01-22T13:18:31.843Z,103732.31
2023-01-22T13:23:43.886Z,103729.72
2023-01-22T13:29:19.111Z,103700.78
2023-01-22T13:34:22.226Z,103734.69
2023-01-22T13:39:35.570Z,103729.84
2023-01-22T13:44:41.590Z,103749.25
2023-01-22T13:49:44.773Z,103751.00
2023-01-22T14:00:32.718Z,103759.59
2023-01-22T14:05:36.566Z,103766.38
2023-01-22T14:10:44.273Z,103768.19
2023-01-22T14:15:56.814Z,103765.06
2023-01-22T14:20:59.826Z,103758.19
2023-01-22T14:26:06.045Z,103771.56
2023-01-22T14:31:09.190Z,103768.94
2023-01-22T14:36:12.280Z,103754.69
2023-01-22T14:41:15.371Z,103779.34
2023-01-22T14:46:18.554Z,103786.84
2023-01-22T14:51:21.595Z,103792.00
2023-01-22T14:56:24.753Z,103792.97
2023-01-22T15:01:27.876Z,103766.81
2023-01-22T15:06:31.064Z,103769.91
2023-01-22T15:11:34.099Z,103745.44
2023-01-22T15:16:38.648Z,103772.94
2023-01-22T15:21:41.814Z,103777.13
2023-01-22T15:26:44.884Z,103801.59
2023-01-22T15:31:47.988Z,103795.44
2023-01-22T15:36:51.187Z,103813.84
2023-01-22T15:41:54.178Z,103789.84
2023-01-22T15:47:01.353Z,103802.94
2023-01-22T15:52:05.208Z,103825.44
2023-01-22T15:57:08.219Z,103833.38
2023-01-22T16:02:11.860Z,103805.19
2023-01-22T16:07:14.862Z,103827.38
2023-01-22T16:12:18.679Z,103812.50
2023-01-22T16:17:21.715Z,103841.22
2023-01-22T16:22:25.561Z,103843.50
2023-01-22T16:27:28.538Z,103805.53
2023-01-22T16:32:31.788Z,103822.94
2023-01-22T16:37:34.779Z,103835.69
2023-01-22T16:42:37.932Z,103824.31
2023-01-22T16:47:41.054Z,103833.75
2023-01-22T16:52:44.115Z,103850.38
2023-01-22T16:57:47.143Z,103847.94
2023-01-22T17:02:50.269Z,103860.63
2023-01-22T17:07:53.340Z,103855.03
2023-01-22T17:12:56.328Z,103874.19
2023-01-22T17:17:59.955Z,103844.94
2023-01-22T17:23:03.187Z,103873.97
2023-01-22T17:28:06.252Z,103854.25
2023-01-22T17:33:09.321Z,103880.16
2023-01-22T17:38:13.035Z,103856.06
2023-01-22T17:43:16.258Z,103866.41
2023-01-22T17:48:19.255Z,103860.09
2023-01-22T17:53:22.299Z,103861.78
2023-01-22T17:58:25.272Z,103883.88
2023-01-22T18:03:28.243Z,103884.31
2023-01-22T18:08:33.402Z,103851.38
2023-01-22T18:13:38.469Z,103886.34
2023-01-22T18:18:42.543Z,103885.31
2023-01-22T18:23:48.685Z,103904.06
2023-01-22T18:28:57.104Z,103896.88
2023-01-22T18:34:03.223Z,103901.16
2023-01-22T18:39:18.473Z,103902.13
2023-01-22T18:44:22.972Z,103886.44
2023-01-22T18:49:28.319Z,103904.63
2023-01-22T18:54:34.018Z,103882.63
2023-01-22T18:59:37.116Z,103889.00
2023-01-22T19:04:40.080Z,103910.97
2023-01-22T19:09:43.194Z,103918.13
2023-01-22T19:14:47.382Z,103928.03
2023-01-22T19:19:50.660Z,103931.47
2023-01-22T19:24:53.849Z,103919.63
2023-01-22T19:29:56.842Z,103938.28
2023-01-22T19:34:59.867Z,103918.50
2023-01-22T19:40:03.269Z,103954.75
2023-01-22T19:45:06.824Z,103903.94
2023-01-22T19:50:10.462Z,103931.97
2023-01-22T19:55:13.543Z,103951.22
2023-01-22T20:00:17.096Z,103950.75
2023-01-22T20:05:20.994Z,103955.06
2023-01-22T20:10:24.158Z,103950.50
2023-01-22T20:15:29.874Z,103955.31
2023-01-22T20:20:33.720Z,103960.78
2023-01-22T20:25:38.953Z,103949.22
2023-01-22T20:30:42.555Z,103960.72
2023-01-22T20:35:45.579Z,103952.19
2023-01-22T20:40:48.560Z,103969.06
2023-01-22T20:46:02.972Z,103974.38
2023-01-22T20:51:15.678Z,103980.78
2023-01-22T20:56:29.197Z,103959.44
2023-01-22T21:01:33.107Z,103974.81
2023-01-22T21:06:36.853Z,103954.09
2023-01-22T21:11:41.289Z,103966.94
2023-01-22T21:16:50.859Z,103974.16
2023-01-22T21:21:57.484Z,103954.25
2023-01-22T21:27:00.545Z,103971.06
2023-01-22T21:32:03.778Z,103960.06
2023-01-22T21:37:06.907Z,103956.44
2023-01-22T21:42:28.694Z,103977.66
2023-01-22T21:47:31.791Z,103983.47
2023-01-22T21:52:34.945Z,103951.19
2023-01-22T21:57:38.847Z,103981.13
2023-01-22T22:02:41.927Z,103978.34
2023-01-22T22:07:45.197Z,103985.78
2023-01-22T22:12:48.213Z,103975.28
2023-01-22T22:17:51.382Z,103964.06
2023-01-22T22:22:55.714Z,103950.03
2023-01-22T22:28:00.046Z,103976.50
2023-01-22T22:33:03.055Z,103957.50
2023-01-22T22:38:06.499Z,103961.97
2023-01-22T22:43:09.574Z,103958.13
2023-01-22T22:48:12.566Z,103955.44
2023-01-22T22:53:15.583Z,103952.50
2023-01-22T22:58:19.133Z,104001.69
2023-01-22T23:03:22.172Z,103982.56
2023-01-22T23:08:25.235Z,103978.63
2023-01-22T23:13:28.343Z,103979.41
2023-01-22T23:18:33.629Z,103992.88
2023-01-22T23:23:37.167Z,103995.19
2023-01-22T23:28:40.695Z,103981.59
2023-01-22T23:33:44.522Z,103978.22
2023-01-22T23:38:47.751Z,103956.66
2023-01-22T23:43:51.347Z,103958.22
2023-01-22T23:48:55.534Z,103960.38
2023-01-22T23:53:59.069Z,103976.31
2023-01-22T23:59:02.099Z,103953.03
